createdAt,value
2018-11-27T00:01:48.092Z,101455.89
2018-11-27T00:04:17.097Z,101463.73
2018-11-27T00:06:46.092Z,101455.28
2018-11-27T00:09:15.285Z,101460.36
2018-11-27T00:11:44.478Z,101465.46
2018-11-27T00:14:13.481Z,101458.45
2018-11-27T00:16:42.475Z,101461.18
2018-11-27T00:19:11.533Z,101470.91
2018-11-27T00:21:40.570Z,101476.41
2018-11-27T00:24:09.791Z,101473.72
2018-11-27T00:26:39.234Z,101476.48
2018-11-27T00:29:08.223Z,101469.54
2018-11-27T00:31:37.216Z,101469.94
2018-11-27T00:34:06.798Z,101468.77
2018-11-27T00:36:35.856Z,101479.48
2018-11-27T00:39:07.248Z,101476.91
2018-11-27T00:41:36.232Z,101480.18
2018-11-27T00:44:05.307Z,101484.00
2018-11-27T00:46:34.309Z,101492.47
2018-11-27T00:49:03.517Z,101496.08
2018-11-27T00:51:32.810Z,101502.03
2018-11-27T00:54:01.801Z,101500.33
2018-11-27T00:56:30.876Z,101497.87
2018-11-27T00:59:00.926Z,101497.42
2018-11-27T01:01:29.971Z,101500.27
2018-11-27T01:03:59.317Z,101506.75
2018-11-27T01:06:28.299Z,101509.26
2018-11-27T01:08:57.678Z,101505.06
2018-11-27T01:11:26.750Z,101508.47
2018-11-27T01:13:55.753Z,101511.55
2018-11-27T01:16:24.785Z,101508.94
2018-11-27T01:18:53.801Z,101507.03
2018-11-27T01:21:23.086Z,101510.59
2018-11-27T01:23:52.081Z,101515.05
2018-11-27T01:26:21.112Z,101522.86
2018-11-27T01:28:50.452Z,101518.62
2018-11-27T01:31:19.451Z,101513.54
2018-11-27T01:33:48.476Z,101523.94
2018-11-27T01:36:17.521Z,101521.16
2018-11-27T01:38:46.515Z,101520.48
2018-11-27T01:41:15.773Z,101516.73
2018-11-27T01:43:45.021Z,101514.47
2018-11-27T01:46:14.112Z,101524.23
2018-11-27T01:48:43.089Z,101517.70
2018-11-27T01:51:12.071Z,101525.82
2018-11-27T01:53:41.149Z,101522.38
2018-11-27T01:56:10.185Z,101519.51
2018-11-27T01:58:39.371Z,101521.23
2018-11-27T02:01:08.658Z,101525.16
2018-11-27T02:03:37.640Z,101523.08
2018-11-27T02:06:07.225Z,101521.64
2018-11-27T02:08:36.529Z,101519.55
2018-11-27T02:11:05.517Z,101525.24
2018-11-27T02:13:34.581Z,101530.98
2018-11-27T02:16:04.227Z,101527.75
2018-11-27T02:18:33.450Z,101522.56
2018-11-27T02:21:02.428Z,101529.41
2018-11-27T02:23:31.447Z,101523.48
2018-11-27T02:26:00.643Z,101527.17
2018-11-27T02:28:29.857Z,101524.56
2018-11-27T02:30:58.830Z,101532.13
2018-11-27T02:33:27.873Z,101531.50
2018-11-27T02:35:56.866Z,101540.55
2018-11-27T02:38:25.910Z,101533.70
2018-11-27T02:40:54.905Z,101539.59
2018-11-27T02:43:24.226Z,101540.21
2018-11-27T02:45:53.637Z,101541.73
2018-11-27T02:48:22.912Z,101554.87
2018-11-27T02:50:51.906Z,101555.17
2018-11-27T02:53:20.942Z,101555.39
2018-11-27T02:55:49.929Z,101557.53
2018-11-27T02:58:19.186Z,101561.66
2018-11-27T03:00:48.186Z,101561.53
2018-11-27T03:03:17.450Z,101564.27
2018-11-27T03:05:46.558Z,101555.16
2018-11-27T03:08:15.531Z,101560.59
2018-11-27T03:10:44.721Z,101565.80
2018-11-27T03:13:13.719Z,101563.36
2018-11-27T03:15:42.704Z,101557.64
2018-11-27T03:18:11.904Z,101562.91
2018-11-27T03:20:40.860Z,101562.09
2018-11-27T03:23:09.858Z,101557.07
2018-11-27T03:25:38.852Z,101563.55
2018-11-27T03:28:07.841Z,101569.85
2018-11-27T03:30:36.845Z,101571.45
2018-11-27T03:33:06.270Z,101574.86
2018-11-27T03:35:35.441Z,101571.31
2018-11-27T03:38:04.427Z,101582.14
2018-11-27T03:40:33.672Z,101584.55
2018-11-27T03:43:02.642Z,101584.12
2018-11-27T03:45:31.652Z,101586.54
2018-11-27T03:48:00.854Z,101589.41
2018-11-27T03:50:31.648Z,101590.31
2018-11-27T03:53:00.884Z,101587.22
2018-11-27T03:55:29.846Z,101586.41
2018-11-27T03:57:58.849Z,101596.91
2018-11-27T04:00:29.065Z,101589.17
2018-11-27T04:03:07.944Z,101592.34
2018-11-27T04:05:37.159Z,101599.97
2018-11-27T04:08:08.880Z,101600.57
2018-11-27T04:10:39.133Z,101597.09
2018-11-27T04:13:08.458Z,101600.97
2018-11-27T04:15:37.660Z,101600.37
2018-11-27T04:18:06.875Z,101607.86
2018-11-27T04:20:35.907Z,101609.42
2018-11-27T04:23:05.009Z,101604.84
2018-11-27T04:25:33.998Z,101615.59
2018-11-27T04:28:03.232Z,101609.91
2018-11-27T04:30:32.301Z,101615.86
2018-11-27T04:33:01.330Z,101619.76
2018-11-27T04:35:30.413Z,101619.14
2018-11-27T04:37:59.678Z,101624.66
2018-11-27T04:40:28.662Z,101620.35
2018-11-27T04:42:57.846Z,101619.73
2018-11-27T04:45:27.463Z,101622.45
2018-11-27T04:47:56.473Z,101626.58
2018-11-27T04:50:25.803Z,101627.47
2018-11-27T04:52:54.804Z,101631.20
2018-11-27T04:55:23.822Z,101640.23
2018-11-27T04:57:53.630Z,101644.83
2018-11-27T05:00:24.901Z,101646.59
2018-11-27T05:02:53.949Z,101651.33
2018-11-27T05:05:23.126Z,101649.79
2018-11-27T05:07:52.106Z,101652.45
2018-11-27T05:10:22.285Z,101661.88
2018-11-27T05:12:51.283Z,101652.80
2018-11-27T05:15:22.987Z,101664.16
2018-11-27T05:17:58.475Z,101666.66
2018-11-27T05:20:27.458Z,101663.22
2018-11-27T05:22:56.528Z,101661.55
2018-11-27T05:25:25.513Z,101664.76
2018-11-27T05:27:56.247Z,101665.25
2018-11-27T05:30:28.377Z,101671.97
2018-11-27T05:32:57.016Z,101674.73
2018-11-27T05:35:29.451Z,101677.14
2018-11-27T05:38:00.144Z,101677.35
2018-11-27T05:40:29.184Z,101678.51
2018-11-27T05:43:03.236Z,101684.82
2018-11-27T05:45:33.460Z,101685.66
2018-11-27T05:48:02.471Z,101677.87
2018-11-27T05:50:31.507Z,101686.23
2018-11-27T05:53:00.560Z,101686.95
2018-11-27T05:55:29.732Z,101689.41
2018-11-27T05:57:58.735Z,101691.69
2018-11-27T06:00:30.063Z,101695.25
2018-11-27T06:03:00.538Z,101692.79
2018-11-27T06:05:29.592Z,101703.66
2018-11-27T06:07:58.667Z,101703.21
2018-11-27T06:10:27.823Z,101710.88
2018-11-27T06:12:56.839Z,101715.26
2018-11-27T06:15:26.331Z,101718.98
2018-11-27T06:17:57.206Z,101723.38
2018-11-27T06:20:26.220Z,101727.75
2018-11-27T06:22:55.633Z,101732.45
2018-11-27T06:25:26.247Z,101735.11
2018-11-27T06:27:57.004Z,101731.55
2018-11-27T06:30:27.586Z,101734.99
2018-11-27T06:32:56.600Z,101741.09
2018-11-27T06:35:42.611Z,101748.33
2018-11-27T06:38:12.145Z,101747.51
2018-11-27T06:40:42.601Z,101753.00
2018-11-27T06:43:12.712Z,101751.42
2018-11-27T06:45:43.207Z,101752.31
2018-11-27T06:48:12.269Z,101756.02
2018-11-27T06:50:41.357Z,101754.38
2018-11-27T06:53:10.426Z,101752.53
2018-11-27T06:55:39.726Z,101753.98
2018-11-27T06:58:09.136Z,101761.67
2018-11-27T07:00:38.111Z,101761.41
2018-11-27T07:03:10.754Z,101764.72
2018-11-27T07:05:40.029Z,101762.73
2018-11-27T07:08:09.833Z,101768.19
2018-11-27T07:10:42.026Z,101774.67
2018-11-27T07:13:16.177Z,101780.38
2018-11-27T07:15:45.223Z,101779.04
2018-11-27T07:18:14.213Z,101784.34
2018-11-27T07:20:43.244Z,101786.42
2018-11-27T07:23:12.275Z,101774.42
2018-11-27T07:25:41.393Z,101781.55
2018-11-27T07:28:10.377Z,101779.29
2018-11-27T07:30:41.101Z,101786.16
2018-11-27T07:33:10.471Z,101783.20
2018-11-27T07:35:39.454Z,101797.14
2018-11-27T07:38:08.519Z,101798.83
2018-11-27T07:40:37.552Z,101798.33
2018-11-27T07:43:10.939Z,101800.20
2018-11-27T07:45:40.472Z,101800.08
2018-11-27T07:48:10.540Z,101801.67
2018-11-27T07:50:39.852Z,101796.72
2018-11-27T07:53:08.922Z,101799.05
2018-11-27T07:55:38.015Z,101806.00
2018-11-27T07:58:07.572Z,101802.98
2018-11-27T08:00:36.696Z,101800.23
2018-11-27T08:03:06.833Z,101794.36
2018-11-27T08:05:38.561Z,101794.97
2018-11-27T08:08:10.873Z,101805.88
2018-11-27T08:10:40.083Z,101813.02
2018-11-27T08:13:10.256Z,101810.59
2018-11-27T08:15:39.249Z,101809.11
2018-11-27T08:18:08.957Z,101816.19
2018-11-27T08:20:37.979Z,101822.16
2018-11-27T08:23:09.529Z,101826.28
2018-11-27T08:25:38.513Z,101829.80
2018-11-27T08:28:08.874Z,101833.12
2018-11-27T08:30:38.343Z,101831.94
2018-11-27T08:33:07.764Z,101837.05
2018-11-27T08:35:36.985Z,101835.78
2018-11-27T08:38:06.256Z,101848.06
2018-11-27T08:40:35.281Z,101845.75
2018-11-27T08:43:04.443Z,101849.43
2018-11-27T08:45:33.447Z,101847.50
2018-11-27T08:48:02.452Z,101855.59
2018-11-27T08:50:31.460Z,101860.53
2018-11-27T08:53:03.074Z,101863.41
2018-11-27T08:55:34.780Z,101863.87
2018-11-27T08:58:05.082Z,101856.77
2018-11-27T09:00:34.120Z,101875.61
2018-11-27T09:03:03.367Z,101874.16
2018-11-27T09:05:32.470Z,101872.23
2018-11-27T09:08:01.474Z,101882.88
2018-11-27T09:10:31.457Z,101889.06
2018-11-27T09:13:00.972Z,101885.66
2018-11-27T09:15:29.853Z,101894.25
2018-11-27T09:18:11.638Z,101895.06
2018-11-27T09:20:40.629Z,101894.52
2018-11-27T09:23:09.801Z,101907.73
2018-11-27T09:25:38.786Z,101906.70
2018-11-27T09:28:07.811Z,101905.94
2018-11-27T09:30:37.048Z,101909.12
2018-11-27T09:33:06.981Z,101909.13
2018-11-27T09:35:36.420Z,101911.05
2018-11-27T09:38:05.787Z,101908.41
2018-11-27T09:40:34.778Z,101907.70
2018-11-27T09:43:03.836Z,101915.92
2018-11-27T09:45:32.848Z,101915.77
2018-11-27T09:48:01.852Z,101916.17
2018-11-27T09:50:30.865Z,101916.64
2018-11-27T09:52:59.884Z,101913.22
2018-11-27T09:55:29.048Z,101910.92
2018-11-27T09:57:59.394Z,101916.95
2018-11-27T10:00:29.049Z,101919.35
2018-11-27T10:03:00.996Z,101928.30
2018-11-27T10:05:29.993Z,101938.20
2018-11-27T10:07:59.052Z,101933.06
2018-11-27T10:10:28.082Z,101922.00
2018-11-27T10:12:57.280Z,101936.30
2018-11-27T10:15:27.869Z,101939.19
2018-11-27T10:18:00.285Z,101942.16
2018-11-27T10:20:34.181Z,101937.59
2018-11-27T10:23:03.244Z,101937.11
2018-11-27T10:25:32.224Z,101940.41
2018-11-27T10:28:01.259Z,101937.75
2018-11-27T10:30:30.269Z,101937.89
2018-11-27T10:32:59.663Z,101932.56
2018-11-27T10:35:30.656Z,101928.73
2018-11-27T10:37:59.694Z,101930.05
2018-11-27T10:40:28.889Z,101931.28
2018-11-27T10:42:57.906Z,101933.45
2018-11-27T10:45:27.712Z,101938.43
2018-11-27T10:47:57.178Z,101947.12
2018-11-27T10:50:26.199Z,101950.11
2018-11-27T10:52:56.597Z,101948.94
2018-11-27T10:55:26.148Z,101950.22
2018-11-27T10:57:55.177Z,101949.73
2018-11-27T11:00:31.576Z,101948.27
2018-11-27T11:03:06.984Z,101947.17
2018-11-27T11:05:38.121Z,101949.67
2018-11-27T11:08:07.160Z,101949.64
2018-11-27T11:10:36.536Z,101949.61
2018-11-27T11:13:05.658Z,101955.81
2018-11-27T11:15:34.715Z,101961.16
2018-11-27T11:18:04.201Z,101959.22
2018-11-27T11:20:33.218Z,101962.62
2018-11-27T11:23:02.532Z,101962.52
2018-11-27T11:25:31.759Z,101968.22
2018-11-27T11:28:00.911Z,101966.06
2018-11-27T11:30:29.884Z,101977.18
2018-11-27T11:32:58.853Z,101971.40
2018-11-27T11:35:28.097Z,101981.55
2018-11-27T11:37:57.129Z,101977.03
2018-11-27T11:40:26.408Z,101975.30
2018-11-27T11:42:57.103Z,101973.69
2018-11-27T11:45:26.316Z,101981.13
2018-11-27T11:47:55.411Z,101990.22
2018-11-27T11:50:29.712Z,101998.56
2018-11-27T11:53:10.975Z,101995.48
2018-11-27T11:55:40.009Z,102008.93
2018-11-27T11:58:09.453Z,102004.86
2018-11-27T12:00:43.007Z,102003.29
2018-11-27T12:03:12.113Z,102006.30
2018-11-27T12:05:41.129Z,102010.16
2018-11-27T12:08:10.373Z,102012.42
2018-11-27T12:10:39.591Z,102006.73
2018-11-27T12:13:10.920Z,102013.90
2018-11-27T12:15:39.980Z,102003.98
2018-11-27T12:18:10.487Z,102011.88
2018-11-27T12:20:40.843Z,102014.16
2018-11-27T12:23:11.667Z,102020.22
2018-11-27T12:25:41.184Z,102002.16
2018-11-27T12:28:14.724Z,102002.95
2018-11-27T12:30:40.332Z,102014.49
2018-11-27T12:33:09.559Z,102006.67
2018-11-27T12:35:38.613Z,102009.13
2018-11-27T12:38:08.191Z,102008.52
2018-11-27T12:40:37.685Z,102012.91
2018-11-27T12:43:07.004Z,102005.58
2018-11-27T12:45:36.230Z,102014.92
2018-11-27T12:48:05.402Z,102007.47
2018-11-27T12:50:43.988Z,102010.27
2018-11-27T12:53:16.983Z,102012.36
2018-11-27T12:55:46.912Z,102022.55
2018-11-27T12:58:15.947Z,102014.88
2018-11-27T13:00:45.148Z,102025.77
2018-11-27T13:03:14.599Z,102019.70
2018-11-27T13:05:45.404Z,102025.88
2018-11-27T13:08:18.197Z,102019.73
2018-11-27T13:10:47.258Z,102025.72
2018-11-27T13:13:16.547Z,102024.80
2018-11-27T13:15:46.078Z,102024.47
2018-11-27T13:18:15.091Z,102026.52
2018-11-27T13:20:44.198Z,102027.53
2018-11-27T13:23:13.241Z,102028.53
2018-11-27T13:25:42.234Z,102025.17
2018-11-27T13:28:13.040Z,102026.91
2018-11-27T13:30:49.964Z,102038.55
2018-11-27T13:33:24.117Z,102033.32
2018-11-27T13:35:53.161Z,102033.47
2018-11-27T13:38:22.208Z,102034.70
2018-11-27T13:40:51.482Z,102034.78
2018-11-27T13:43:28.641Z,102040.34
2018-11-27T13:45:59.789Z,102035.36
2018-11-27T13:48:28.839Z,102037.55
2018-11-27T13:50:58.442Z,102044.14
2018-11-27T13:53:27.421Z,102044.71
2018-11-27T13:55:56.437Z,102042.56
2018-11-27T13:58:25.666Z,102046.23
2018-11-27T14:00:54.681Z,102053.00
2018-11-27T14:03:24.066Z,102055.62
2018-11-27T14:05:53.373Z,102049.20
2018-11-27T14:08:22.396Z,102053.51
2018-11-27T14:10:51.998Z,102049.84
2018-11-27T14:13:21.391Z,102058.22
2018-11-27T14:15:56.305Z,102051.00
2018-11-27T14:18:25.354Z,102046.52
2018-11-27T14:24:26.920Z,102058.22
2018-11-27T14:26:57.159Z,102051.66
2018-11-27T14:29:26.180Z,102055.47
2018-11-27T14:31:55.164Z,102056.09
2018-11-27T14:34:24.168Z,102051.50
2018-11-27T14:36:53.173Z,102053.17
2018-11-27T14:39:22.199Z,102057.78
2018-11-27T14:41:51.359Z,102065.13
2018-11-27T14:44:20.399Z,102068.68
2018-11-27T14:46:49.404Z,102062.04
2018-11-27T14:49:18.375Z,102062.56
2018-11-27T14:51:47.500Z,102064.05
2018-11-27T14:54:16.544Z,102071.01
2018-11-27T14:56:45.718Z,102077.32
2018-11-27T14:59:16.180Z,102071.13
2018-11-27T15:01:45.388Z,102070.61
2018-11-27T15:04:14.777Z,102065.24
2018-11-27T15:06:43.886Z,102062.30
2018-11-27T15:09:12.955Z,102065.73
2018-11-27T15:11:42.040Z,102080.42
2018-11-27T15:14:11.698Z,102075.81
2018-11-27T15:38:27.320Z,102087.16
2018-11-27T15:40:56.306Z,102092.13
2018-11-27T15:43:25.416Z,102095.16
2018-11-27T15:45:54.491Z,102092.59
2018-11-27T15:48:23.513Z,102090.01
2018-11-27T15:50:52.576Z,102092.36
2018-11-27T15:53:21.578Z,102098.09
2018-11-27T15:55:50.598Z,102097.50
2018-11-27T15:58:20.421Z,102098.53
2018-11-27T16:00:49.553Z,102098.22
2018-11-27T16:03:18.565Z,102097.72
2018-11-27T16:05:47.629Z,102096.94
2018-11-27T16:08:16.648Z,102100.09
2018-11-27T16:10:45.661Z,102105.73
2018-11-27T16:13:14.691Z,102114.83
2018-11-27T16:15:43.713Z,102110.48
2018-11-27T16:18:12.849Z,102112.89
2018-11-27T16:20:42.024Z,102120.63
2018-11-27T16:23:11.113Z,102119.14
2018-11-27T16:25:40.440Z,102125.72
2018-11-27T16:28:09.542Z,102142.55
2018-11-27T16:30:38.538Z,102133.73
2018-11-27T16:33:07.977Z,102136.81
2018-11-27T16:35:37.290Z,102144.29
2018-11-27T16:38:07.212Z,102152.76
2018-11-27T16:40:38.088Z,102150.20
2018-11-27T16:43:07.871Z,102154.56
2018-11-27T16:45:36.974Z,102149.81
2018-11-27T16:48:06.990Z,102155.37
2018-11-27T16:50:36.251Z,102159.64
2018-11-27T16:53:05.659Z,102160.54
2018-11-27T16:55:34.661Z,102154.08
2018-11-27T16:58:03.783Z,102162.73
2018-11-27T17:00:33.929Z,102167.06
2018-11-27T17:03:07.910Z,102173.66
2018-11-27T17:05:43.792Z,102177.68
2018-11-27T17:08:12.822Z,102176.58
2018-11-27T17:10:44.729Z,102176.64
2018-11-27T17:13:16.217Z,102175.47
2018-11-27T17:15:45.442Z,102178.06
2018-11-27T17:18:14.492Z,102180.79
2018-11-27T17:20:45.445Z,102189.75
2018-11-27T17:23:20.125Z,102189.34
2018-11-27T17:25:49.161Z,102182.79
2018-11-27T17:28:21.808Z,102179.31
2018-11-27T17:31:02.075Z,102178.34
2018-11-27T17:33:36.000Z,102194.95
2018-11-27T17:36:09.382Z,102207.51
2018-11-27T17:38:38.606Z,102206.75
2018-11-27T17:41:08.777Z,102210.39
2018-11-27T17:43:38.731Z,102209.98
2018-11-27T17:46:08.296Z,102213.06
2018-11-27T17:48:37.292Z,102211.09
2018-11-27T17:51:07.369Z,102203.56
2018-11-27T17:53:37.249Z,102220.00
2018-11-27T17:56:06.357Z,102226.81
2018-11-27T17:58:35.484Z,102228.71
2018-11-27T18:01:04.520Z,102225.02
2018-11-27T18:03:33.720Z,102218.03
2018-11-27T18:06:03.039Z,102208.87
2018-11-27T18:08:32.359Z,102213.89
2018-11-27T18:11:01.382Z,102210.04
2018-11-27T18:13:30.644Z,102206.42
2018-11-27T18:15:59.680Z,102217.77
2018-11-27T18:18:28.690Z,102216.89
2018-11-27T18:20:57.721Z,102215.50
2018-11-27T18:23:26.889Z,102220.64
2018-11-27T18:25:56.349Z,102217.86
2018-11-27T18:28:25.565Z,102222.57
2018-11-27T18:30:54.950Z,102224.23
2018-11-27T18:33:24.604Z,102223.25
2018-11-27T18:35:53.732Z,102213.63
2018-11-27T18:38:22.850Z,102216.92
2018-11-27T18:40:52.103Z,102215.92
2018-11-27T18:43:21.127Z,102216.14
2018-11-27T18:45:50.147Z,102211.17
2018-11-27T18:48:19.265Z,102207.19
2018-11-27T18:50:48.602Z,102212.43
2018-11-27T18:53:18.153Z,102218.66
2018-11-27T18:55:47.147Z,102222.38
2018-11-27T18:58:16.266Z,102221.56
2018-11-27T19:00:45.310Z,102224.30
2018-11-27T19:03:14.390Z,102223.31
2018-11-27T19:05:43.442Z,102226.56
2018-11-27T19:08:12.428Z,102222.16
2018-11-27T19:10:41.708Z,102225.69
2018-11-27T19:13:10.710Z,102226.64
2018-11-27T19:15:43.148Z,102231.99
2018-11-27T19:18:18.177Z,102237.85
2018-11-27T19:20:47.267Z,102237.78
2018-11-27T19:23:17.534Z,102240.19
2018-11-27T19:25:46.636Z,102245.39
2018-11-27T19:28:15.813Z,102249.80
2018-11-27T19:30:45.408Z,102247.16
2018-11-27T19:33:14.479Z,102244.32
2018-11-27T19:35:43.883Z,102242.17
2018-11-27T19:38:16.462Z,102242.63
2018-11-27T19:40:45.524Z,102242.52
2018-11-27T19:43:14.789Z,102243.21
2018-11-27T19:45:43.819Z,102246.80
2018-11-27T19:48:14.256Z,102244.93
2018-11-27T19:50:43.272Z,102247.50
2018-11-27T19:53:14.348Z,102253.53
2018-11-27T19:55:43.770Z,102259.73
2018-11-27T19:58:12.995Z,102260.47
2018-11-27T20:00:42.433Z,102263.25
2018-11-27T20:03:12.613Z,102271.01
2018-11-27T20:05:42.382Z,102259.52
2018-11-27T20:08:15.080Z,102260.84
2018-11-27T20:10:44.421Z,102263.38
2018-11-27T20:13:15.348Z,102267.13
2018-11-27T20:15:45.460Z,102270.58
2018-11-27T20:18:15.307Z,102270.00
2018-11-27T20:20:44.588Z,102271.28
2018-11-27T20:23:14.674Z,102271.80
2018-11-27T20:25:44.437Z,102271.97
2018-11-27T20:28:14.267Z,102279.77
2018-11-27T20:30:43.645Z,102279.84
2018-11-27T20:33:14.016Z,102282.99
2018-11-27T20:35:45.633Z,102288.66
2018-11-27T20:38:14.917Z,102290.60
2018-11-27T20:40:45.269Z,102280.61
2018-11-27T20:43:14.894Z,102284.93
2018-11-27T20:45:45.758Z,102278.38
2018-11-27T20:48:19.751Z,102282.89
2018-11-27T20:50:51.448Z,102295.17
2018-11-27T20:53:20.861Z,102300.00
2018-11-27T20:55:51.710Z,102304.78
2018-11-27T20:58:22.396Z,102305.22
2018-11-27T21:00:53.193Z,102308.59
2018-11-27T21:03:22.293Z,102305.96
2018-11-27T21:05:51.597Z,102302.84
2018-11-27T21:08:21.721Z,102301.40
2018-11-27T21:10:50.967Z,102306.04
2018-11-27T21:13:20.054Z,102304.45
2018-11-27T21:15:49.301Z,102310.98
2018-11-27T21:18:19.253Z,102317.03
2018-11-27T21:20:48.259Z,102317.20
2018-11-27T21:23:17.740Z,102327.25
2018-11-27T21:25:48.058Z,102316.65
2018-11-27T21:28:19.818Z,102317.29
2018-11-27T21:30:51.900Z,102319.95
2018-11-27T21:33:21.870Z,102317.38
2018-11-27T21:35:50.966Z,102315.31
2018-11-27T21:38:22.529Z,102311.95
2018-11-27T21:40:51.570Z,102308.92
2018-11-27T21:43:20.576Z,102313.12
2018-11-27T21:45:49.665Z,102313.70
2018-11-27T21:48:19.256Z,102315.79
2018-11-27T21:50:49.362Z,102326.20
2018-11-27T21:53:20.245Z,102328.34
2018-11-27T21:55:50.669Z,102327.46
2018-11-27T21:58:19.686Z,102330.68
2018-11-27T22:00:49.507Z,102331.36
2018-11-27T22:03:18.733Z,102333.92
2018-11-27T22:05:48.205Z,102336.84
2018-11-27T22:08:18.250Z,102347.23
2018-11-27T22:10:48.534Z,102349.38
2018-11-27T22:13:19.545Z,102348.72
2018-11-27T22:15:49.355Z,102345.09
2018-11-27T22:18:20.069Z,102345.45
2018-11-27T22:20:53.968Z,102353.23
2018-11-27T22:23:23.909Z,102359.31
2018-11-27T22:25:53.778Z,102364.70
2018-11-27T22:28:23.814Z,102370.48
2018-11-27T22:30:52.927Z,102364.20
2018-11-27T22:33:22.731Z,102360.38
2018-11-27T22:35:51.805Z,102366.95
2018-11-27T22:38:21.635Z,102369.67
2018-11-27T22:40:51.443Z,102365.31
2018-11-27T22:43:20.655Z,102375.78
2018-11-27T22:45:50.828Z,102377.38
2018-11-27T22:48:20.243Z,102380.74
2018-11-27T22:50:50.168Z,102378.05
2018-11-27T22:53:20.774Z,102383.81
2018-11-27T22:55:49.799Z,102380.20
2018-11-27T22:58:18.852Z,102380.20
2018-11-27T23:00:50.238Z,102380.55
2018-11-27T23:03:20.312Z,102379.59
2018-11-27T23:05:50.173Z,102375.55
2018-11-27T23:08:20.471Z,102373.31
2018-11-27T23:10:50.475Z,102373.88
2018-11-27T23:13:19.541Z,102379.88
2018-11-27T23:15:48.628Z,102383.57
2018-11-27T23:18:17.644Z,102395.08
2018-11-27T23:20:46.652Z,102396.77
2018-11-27T23:23:15.650Z,102399.86
2018-11-27T23:25:44.713Z,102389.96
2018-11-27T23:28:13.778Z,102389.66
2018-11-27T23:30:43.322Z,102378.80
2018-11-27T23:33:12.305Z,102380.91
2018-11-27T23:35:41.385Z,102375.37
2018-11-27T23:38:10.395Z,102372.91
2018-11-27T23:40:40.084Z,102383.22
2018-11-27T23:43:09.289Z,102379.50
2018-11-27T23:45:38.501Z,102383.17
2018-11-27T23:48:07.892Z,102385.87
2018-11-27T23:50:36.999Z,102383.07
2018-11-27T23:53:06.447Z,102389.63
2018-11-27T23:55:35.522Z,102386.73
2018-11-27T23:58:04.786Z,102386.64
